createdAt,value
2023-02-15T00:00:45.611Z,100829.34
2023-02-15T00:03:14.337Z,100829.28
2023-02-15T00:05:43.055Z,100824.22
2023-02-15T00:08:11.690Z,100827.63
2023-02-15T00:10:40.282Z,100829.28
2023-02-15T00:13:08.859Z,100821.72
2023-02-15T00:15:37.457Z,100813.25
2023-02-15T00:18:07.722Z,100815.84
2023-02-15T00:20:36.876Z,100816.66
2023-02-15T00:23:05.563Z,100819.16
2023-02-15T00:25:34.195Z,100814.13
2023-02-15T00:28:02.818Z,100809.00
2023-02-15T00:30:31.573Z,100812.44
2023-02-15T00:33:00.172Z,100818.34
2023-02-15T00:35:30.480Z,100808.19
2023-02-15T00:37:59.514Z,100801.44
2023-02-15T00:40:28.259Z,100808.19
2023-02-15T00:42:57.124Z,100820.88
2023-02-15T00:45:25.754Z,100804.84
2023-02-15T00:47:54.373Z,100804.81
2023-02-15T00:50:23.930Z,100813.25
2023-02-15T00:52:53.988Z,100805.63
2023-02-15T00:55:22.602Z,100800.59
2023-02-15T00:57:51.675Z,100809.00
2023-02-15T01:00:20.482Z,100803.13
2023-02-15T01:02:49.135Z,100803.13
2023-02-15T01:05:18.302Z,100801.44
2023-02-15T01:07:46.918Z,100800.66
2023-02-15T01:10:17.291Z,100802.34
2023-02-15T01:12:46.000Z,100806.59
2023-02-15T01:15:14.676Z,100806.59
2023-02-15T01:17:43.555Z,100793.06
2023-02-15T01:20:13.394Z,100800.66
2023-02-15T01:22:42.408Z,100801.53
2023-02-15T01:25:11.051Z,100794.78
2023-02-15T01:27:41.022Z,100794.81
2023-02-15T01:30:10.899Z,100798.16
2023-02-15T01:32:39.489Z,100794.00
2023-02-15T01:35:09.187Z,100791.47
2023-02-15T01:37:38.619Z,100789.78
2023-02-15T01:40:14.959Z,100788.94
2023-02-15T01:42:48.066Z,100790.66
2023-02-15T01:45:24.094Z,100783.91
2023-02-15T01:47:58.794Z,100785.63
2023-02-15T01:50:32.672Z,100774.66
2023-02-15T01:53:09.722Z,100778.97
2023-02-15T01:55:42.809Z,100778.97
2023-02-15T01:58:13.463Z,100778.16
2023-02-15T02:00:42.574Z,100772.31
2023-02-15T02:03:11.392Z,100771.47
2023-02-15T02:05:58.889Z,100789.19
2023-02-15T02:08:27.838Z,100787.56
2023-02-15T02:10:56.471Z,100788.41
2023-02-15T02:13:26.934Z,100791.84
2023-02-15T02:16:04.185Z,100783.44
2023-02-15T02:18:47.329Z,100787.72
2023-02-15T02:21:52.467Z,100772.53
2023-02-15T02:25:05.471Z,100776.00
2023-02-15T02:27:41.037Z,100765.91
2023-02-15T02:30:59.510Z,100766.00
2023-02-15T02:33:56.717Z,100767.78
2023-02-15T02:36:34.021Z,100767.78
2023-02-15T02:39:19.675Z,100763.66
2023-02-15T02:41:58.292Z,100761.13
2023-02-15T02:44:43.888Z,100761.97
2023-02-15T02:47:18.662Z,100758.59
2023-02-15T02:49:48.753Z,100752.66
2023-02-15T02:52:41.618Z,100754.34
2023-02-15T02:55:16.499Z,100753.50
2023-02-15T02:57:54.857Z,100756.00
2023-02-15T03:00:27.785Z,100751.75
2023-02-15T03:03:06.180Z,100746.69
2023-02-15T03:05:40.078Z,100743.31
2023-02-15T03:08:11.067Z,100732.31
2023-02-15T03:10:42.858Z,100738.25
2023-02-15T03:13:11.619Z,100734.00
2023-02-15T03:16:01.163Z,100734.84
2023-02-15T03:18:36.946Z,100736.56
2023-02-15T03:21:22.971Z,100732.31
2023-02-15T03:23:59.044Z,100742.50
2023-02-15T03:26:30.061Z,100737.41
2023-02-15T03:29:01.084Z,100731.50
2023-02-15T03:31:34.816Z,100729.78
2023-02-15T03:34:07.299Z,100726.44
2023-02-15T03:36:46.446Z,100727.25
2023-02-15T03:39:22.706Z,100730.63
2023-02-15T03:42:01.207Z,100733.94
2023-02-15T03:44:32.614Z,100733.09
2023-02-15T03:47:10.934Z,100755.03
2023-02-15T03:49:44.899Z,100754.19
2023-02-15T03:52:15.873Z,100758.34
2023-02-15T03:54:46.958Z,100767.63
2023-02-15T03:57:40.074Z,100765.91
2023-02-15T04:00:33.902Z,100765.09
2023-02-15T04:03:32.250Z,100757.50
2023-02-15T04:06:02.435Z,100753.28
2023-02-15T04:08:46.527Z,100748.25
2023-02-15T04:11:15.167Z,100750.03
2023-02-15T04:13:43.987Z,100741.59
2023-02-15T04:16:11.642Z,100741.63
2023-02-15T04:19:00.940Z,100738.31
2023-02-15T04:21:49.031Z,100738.34
2023-02-15T04:24:36.739Z,100732.50
2023-02-15T04:27:06.991Z,100730.88
2023-02-15T04:29:35.659Z,100734.22
2023-02-15T04:32:04.692Z,100737.56
2023-02-15T04:34:33.452Z,100737.56
2023-02-15T04:37:02.223Z,100730.81
2023-02-15T04:39:33.165Z,100737.59
2023-02-15T04:42:01.911Z,100739.28
2023-02-15T04:44:30.604Z,100737.59
2023-02-15T04:46:59.152Z,100735.97
2023-02-15T04:49:27.750Z,100740.13
2023-02-15T04:52:00.169Z,100736.78
2023-02-15T04:54:28.913Z,100730.00
2023-02-15T04:56:58.888Z,100726.63
2023-02-15T04:59:27.451Z,100714.78
2023-02-15T05:01:56.092Z,100707.22
2023-02-15T05:04:24.911Z,100702.97
2023-02-15T05:06:53.718Z,100704.63
2023-02-15T05:09:22.375Z,100713.94
2023-02-15T05:11:50.972Z,100714.78
2023-02-15T05:14:21.139Z,100708.03
2023-02-15T05:16:49.774Z,100721.47
2023-02-15T05:19:18.597Z,100718.09
2023-02-15T05:21:47.224Z,100703.75
2023-02-15T05:24:33.824Z,100706.25
2023-02-15T05:27:20.021Z,100707.06
2023-02-15T05:29:50.174Z,100702.81
2023-02-15T05:32:18.898Z,100705.31
2023-02-15T05:34:47.562Z,100698.53
2023-02-15T05:37:16.858Z,100691.78
2023-02-15T05:39:45.934Z,100711.16
2023-02-15T05:42:14.663Z,100709.47
2023-02-15T05:44:43.327Z,100711.97
2023-02-15T05:47:13.366Z,100706.88
2023-02-15T05:49:42.111Z,100716.19
2023-02-15T05:52:10.813Z,100715.28
2023-02-15T05:54:39.475Z,100710.22
2023-02-15T05:57:08.219Z,100716.97
2023-02-15T05:59:36.947Z,100726.22
2023-02-15T06:02:07.500Z,100727.91
2023-02-15T06:04:37.554Z,100728.78
2023-02-15T06:07:06.198Z,100722.03
2023-02-15T06:09:34.851Z,100731.31
2023-02-15T06:12:03.554Z,100725.41
2023-02-15T06:14:32.147Z,100729.66
2023-02-15T06:17:00.780Z,100727.16
2023-02-15T06:19:29.417Z,100736.44
2023-02-15T06:21:59.469Z,100727.16
2023-02-15T06:24:28.118Z,100729.69
2023-02-15T06:26:56.738Z,100731.38
2023-02-15T06:29:25.358Z,100735.56
2023-02-15T06:31:54.156Z,100729.69
2023-02-15T06:34:22.790Z,100735.63
2023-02-15T06:36:51.358Z,100733.09
2023-02-15T06:39:21.328Z,100736.47
2023-02-15T06:41:50.120Z,100745.81
2023-02-15T06:44:18.677Z,100751.72
2023-02-15T06:46:47.438Z,100752.63
2023-02-15T06:49:16.078Z,100755.16
2023-02-15T06:51:44.798Z,100758.56
2023-02-15T06:54:13.490Z,100758.56
2023-02-15T06:56:44.578Z,100763.66
2023-02-15T06:59:13.493Z,100757.69
2023-02-15T07:01:42.245Z,100762.72
2023-02-15T07:04:10.911Z,100757.66
2023-02-15T07:06:39.577Z,100756.75
2023-02-15T07:09:08.302Z,100755.94
2023-02-15T07:11:54.253Z,100760.97
2023-02-15T07:14:24.457Z,100756.72
2023-02-15T07:16:53.019Z,100763.47
2023-02-15T07:19:21.760Z,100757.53
2023-02-15T07:21:50.351Z,100761.75
2023-02-15T07:24:19.448Z,100760.03
2023-02-15T07:26:48.073Z,100755.78
2023-02-15T07:29:16.985Z,100752.44
2023-02-15T07:31:46.951Z,100760.03
2023-02-15T07:34:15.587Z,100755.00
2023-02-15T07:36:45.054Z,100760.84
2023-02-15T07:39:13.724Z,100752.47
2023-02-15T07:41:42.385Z,100749.94
2023-02-15T07:44:15.402Z,100754.97
2023-02-15T07:46:44.134Z,100753.28
2023-02-15T07:49:14.338Z,100757.53
2023-02-15T07:51:43.015Z,100749.13
2023-02-15T07:54:11.674Z,100744.84
2023-02-15T07:56:40.392Z,100742.28
2023-02-15T07:59:10.053Z,100741.44
2023-02-15T08:01:41.120Z,100739.75
2023-02-15T08:04:12.107Z,100746.50
2023-02-15T08:06:42.095Z,100740.59
2023-02-15T08:09:11.903Z,100738.91
2023-02-15T08:11:41.799Z,100743.13
2023-02-15T08:14:13.232Z,100740.56
2023-02-15T08:16:44.344Z,100725.38
2023-02-15T08:19:15.851Z,100725.34
2023-02-15T08:21:48.351Z,100719.41
2023-02-15T08:24:20.174Z,100715.19
2023-02-15T08:26:49.709Z,100721.09
2023-02-15T08:29:20.439Z,100720.22
2023-02-15T08:31:49.224Z,100726.94
2023-02-15T08:34:21.037Z,100728.56
2023-02-15T08:36:51.938Z,100727.69
2023-02-15T08:39:20.579Z,100725.09
2023-02-15T08:41:50.205Z,100724.22
2023-02-15T08:44:20.859Z,100724.19
2023-02-15T08:46:50.845Z,100721.63
2023-02-15T08:49:21.935Z,100717.34
2023-02-15T08:51:52.548Z,100719.84
2023-02-15T08:54:23.639Z,100712.22
2023-02-15T08:56:52.396Z,100712.16
2023-02-15T08:59:23.687Z,100700.31
2023-02-15T09:01:54.122Z,100695.19
2023-02-15T09:04:23.650Z,100690.09
2023-02-15T09:06:54.079Z,100695.13
2023-02-15T09:09:23.329Z,100695.13
2023-02-15T09:11:58.769Z,100685.78
2023-02-15T09:14:29.121Z,100679.84
2023-02-15T09:16:58.103Z,100686.59
2023-02-15T09:19:27.145Z,100690.75
2023-02-15T09:21:57.258Z,100680.63
2023-02-15T09:24:25.863Z,100688.19
2023-02-15T09:26:54.507Z,100683.06
2023-02-15T09:29:23.771Z,100677.13
2023-02-15T09:31:54.601Z,100674.56
2023-02-15T09:34:24.760Z,100678.72
2023-02-15T09:36:54.512Z,100670.25
2023-02-15T09:39:26.624Z,100668.53
2023-02-15T09:42:32.964Z,100673.53
2023-02-15T09:45:29.038Z,100672.66
2023-02-15T09:48:28.695Z,100668.41
2023-02-15T09:51:12.501Z,100681.91
2023-02-15T09:54:06.600Z,100675.97
2023-02-15T09:56:41.811Z,100681.84
2023-02-15T09:59:19.094Z,100679.31
2023-02-15T10:01:58.713Z,100684.34
2023-02-15T10:04:55.538Z,100677.56
2023-02-15T10:07:42.846Z,100671.59
2023-02-15T10:10:26.468Z,100663.94
2023-02-15T10:13:21.198Z,100674.06
2023-02-15T10:16:10.894Z,100666.41
2023-02-15T10:18:56.959Z,100671.47
2023-02-15T10:21:51.767Z,100675.66
2023-02-15T10:24:51.840Z,100682.41
2023-02-15T10:27:23.527Z,100683.22
2023-02-15T10:30:06.924Z,100688.28
2023-02-15T10:32:43.768Z,100696.72
2023-02-15T10:35:23.383Z,100693.31
2023-02-15T10:38:05.722Z,100687.34
2023-02-15T10:40:44.009Z,100691.56
2023-02-15T10:43:35.924Z,100700.81
2023-02-15T10:46:23.060Z,100690.66
2023-02-15T10:49:19.090Z,100698.22
2023-02-15T10:52:04.886Z,100689.75
2023-02-15T10:54:43.219Z,100693.09
2023-02-15T10:57:22.122Z,100695.59
2023-02-15T11:00:06.198Z,100695.59
2023-02-15T11:03:04.870Z,100701.44
2023-02-15T11:05:43.749Z,100693.81
2023-02-15T11:08:14.133Z,100692.09
2023-02-15T11:10:49.169Z,100687.81
2023-02-15T11:13:20.698Z,100686.06
2023-02-15T11:15:54.791Z,100682.66
2023-02-15T11:18:31.392Z,100677.53
2023-02-15T11:21:09.362Z,100675.84
2023-02-15T11:23:43.022Z,100676.63
2023-02-15T11:26:19.440Z,100659.69
2023-02-15T11:28:56.223Z,100654.56
2023-02-15T11:31:28.198Z,100650.31
2023-02-15T11:34:04.107Z,100643.56
2023-02-15T11:36:37.312Z,100637.63
2023-02-15T11:39:12.679Z,100639.25
2023-02-15T11:41:47.026Z,100630.78
2023-02-15T11:44:21.851Z,100632.44
2023-02-15T11:46:50.621Z,100623.97
2023-02-15T11:49:28.375Z,100623.06
2023-02-15T11:51:59.244Z,100616.34
2023-02-15T11:54:33.250Z,100623.06
2023-02-15T11:57:14.360Z,100616.25
2023-02-15T11:59:49.017Z,100617.09
2023-02-15T12:02:22.265Z,100619.56
2023-02-15T12:04:58.016Z,100622.91
2023-02-15T12:07:31.162Z,100616.06
2023-02-15T12:10:12.878Z,100613.53
2023-02-15T12:12:41.720Z,100606.72
2023-02-15T12:15:13.804Z,100601.56
2023-02-15T12:17:51.975Z,100600.69
2023-02-15T12:20:31.858Z,100596.41
2023-02-15T12:23:04.759Z,100587.09
2023-02-15T12:25:44.232Z,100587.03
2023-02-15T12:28:27.989Z,100582.75
2023-02-15T12:30:58.734Z,100580.16
2023-02-15T12:33:32.626Z,100581.00
2023-02-15T12:36:13.340Z,100580.06
2023-02-15T12:38:42.106Z,100584.34
2023-02-15T12:41:28.023Z,100587.66
2023-02-15T12:44:14.319Z,100577.50
2023-02-15T12:46:44.767Z,100574.09
2023-02-15T12:49:21.338Z,100570.69
2023-02-15T12:51:54.138Z,100568.13
2023-02-15T12:54:36.594Z,100567.19
2023-02-15T12:57:24.046Z,100562.13
2023-02-15T12:59:55.482Z,100557.84
2023-02-15T13:02:32.550Z,100554.44
2023-02-15T13:05:19.597Z,100556.94
2023-02-15T13:07:54.166Z,100545.00
2023-02-15T13:10:29.574Z,100549.22
2023-02-15T13:12:59.337Z,100545.81
2023-02-15T13:15:34.714Z,100540.72
2023-02-15T13:18:05.596Z,100540.72
2023-02-15T13:20:37.483Z,100528.84
2023-02-15T13:23:20.764Z,100538.09
2023-02-15T13:25:51.634Z,100529.59
2023-02-15T13:28:25.482Z,100520.25
2023-02-15T13:30:54.384Z,100527.84
2023-02-15T13:33:31.862Z,100522.72
2023-02-15T13:36:11.486Z,100521.81
2023-02-15T13:39:08.779Z,100522.69
2023-02-15T13:41:51.775Z,100518.41
2023-02-15T13:44:42.610Z,100514.19
2023-02-15T13:47:24.777Z,100520.03
2023-02-15T13:50:15.878Z,100514.91
2023-02-15T13:52:54.271Z,100509.81
2023-02-15T13:55:40.224Z,100497.97
2023-02-15T13:59:01.858Z,100491.22
2023-02-15T14:01:40.964Z,100488.63
2023-02-15T14:04:35.137Z,100484.38
2023-02-15T14:07:39.480Z,100484.38
2023-02-15T14:10:40.599Z,100487.75
2023-02-15T14:13:52.574Z,100480.97
2023-02-15T14:16:34.547Z,100482.63
2023-02-15T14:19:17.543Z,100475.00
2023-02-15T14:21:55.594Z,100477.50
2023-02-15T14:24:32.608Z,100475.78
2023-02-15T14:27:16.582Z,100477.44
2023-02-15T14:29:53.658Z,100480.81
2023-02-15T14:32:34.776Z,100474.84
2023-02-15T14:35:10.647Z,100479.06
2023-02-15T14:37:50.098Z,100486.63
2023-02-15T14:40:51.228Z,100480.72
2023-02-15T14:43:36.339Z,100480.66
2023-02-15T14:46:14.009Z,100478.13
2023-02-15T14:48:47.916Z,100482.34
2023-02-15T14:51:59.954Z,100484.03
2023-02-15T14:55:00.995Z,100485.75
2023-02-15T14:57:36.019Z,100478.13
2023-02-15T15:00:39.044Z,100477.31
2023-02-15T15:03:22.245Z,100474.78
2023-02-15T15:05:54.358Z,100471.38
2023-02-15T15:08:34.370Z,100464.63
2023-02-15T15:11:43.841Z,100463.00
2023-02-15T15:14:44.354Z,100457.13
2023-02-15T15:17:55.178Z,100457.13
2023-02-15T15:20:46.777Z,100464.84
2023-02-15T15:23:47.021Z,100460.59
2023-02-15T15:26:37.958Z,100468.22
2023-02-15T15:29:08.574Z,100467.38
2023-02-15T15:31:46.939Z,100456.34
2023-02-15T15:35:02.311Z,100460.59
2023-02-15T15:37:52.988Z,100455.50
2023-02-15T15:40:53.603Z,100460.59
2023-02-15T15:44:06.429Z,100459.81
2023-02-15T15:46:55.292Z,100472.53
2023-02-15T15:49:29.410Z,100469.13
2023-02-15T15:52:03.445Z,100475.88
2023-02-15T15:54:33.498Z,100473.34
2023-02-15T15:57:07.426Z,100475.81
2023-02-15T15:59:37.000Z,100468.22
2023-02-15T16:02:13.852Z,100472.41
2023-02-15T16:04:42.454Z,100464.84
2023-02-15T16:07:27.530Z,100481.75
2023-02-15T16:09:58.854Z,100481.75
2023-02-15T16:12:30.260Z,100476.69
2023-02-15T16:15:00.250Z,100479.16
2023-02-15T16:17:34.483Z,100482.56
2023-02-15T16:20:19.534Z,100491.91
2023-02-15T16:22:55.920Z,100485.13
2023-02-15T16:25:39.736Z,100489.38
2023-02-15T16:28:10.702Z,100491.91
2023-02-15T16:30:41.466Z,100480.09
2023-02-15T16:33:12.146Z,100485.16
2023-02-15T16:35:43.320Z,100484.38
2023-02-15T16:38:13.445Z,100479.28
2023-02-15T16:40:51.574Z,100480.19
2023-02-15T16:43:26.976Z,100481.88
2023-02-15T16:46:06.061Z,100484.47
2023-02-15T16:48:41.655Z,100483.72
2023-02-15T16:51:11.086Z,100482.91
2023-02-15T16:53:41.036Z,100482.16
2023-02-15T16:56:09.931Z,100483.03
2023-02-15T16:58:43.131Z,100479.63
2023-02-15T17:01:15.645Z,100483.06
2023-02-15T17:03:45.127Z,100482.22
2023-02-15T17:06:31.668Z,100490.72
2023-02-15T17:09:11.005Z,100485.63
2023-02-15T17:11:45.045Z,100486.53
2023-02-15T17:14:24.611Z,100483.16
2023-02-15T17:16:57.483Z,100498.44
2023-02-15T17:19:29.108Z,100480.66
2023-02-15T17:22:00.616Z,100474.75
2023-02-15T17:24:41.668Z,100478.19
2023-02-15T17:27:18.467Z,100480.72
2023-02-15T17:29:50.031Z,100484.13
2023-02-15T17:32:22.497Z,100480.75
2023-02-15T17:35:09.331Z,100472.31
2023-02-15T17:37:48.438Z,100479.94
2023-02-15T17:40:26.139Z,100479.09
2023-02-15T17:42:54.962Z,100488.38
2023-02-15T17:45:25.407Z,100485.03
2023-02-15T17:47:54.343Z,100486.72
2023-02-15T17:50:25.738Z,100496.00
2023-02-15T17:52:57.895Z,100491.75
2023-02-15T17:55:39.031Z,100485.84
2023-02-15T17:58:10.957Z,100485.84
2023-02-15T18:01:01.553Z,100486.72
2023-02-15T18:04:00.628Z,100492.66
2023-02-15T18:06:47.602Z,100490.13
2023-02-15T18:09:36.271Z,100493.56
2023-02-15T18:12:21.134Z,100492.75
2023-02-15T18:14:50.110Z,100486.03
2023-02-15T18:17:19.730Z,100493.69
2023-02-15T18:19:48.780Z,100496.22
2023-02-15T18:22:20.141Z,100492.88
2023-02-15T18:24:50.141Z,100488.69
2023-02-15T18:27:21.278Z,100491.19
2023-02-15T18:29:49.897Z,100488.66
2023-02-15T18:32:23.932Z,100470.97
2023-02-15T18:34:53.400Z,100473.56
2023-02-15T18:37:23.592Z,100475.28
2023-02-15T18:39:54.413Z,100476.13
2023-02-15T18:42:28.065Z,100472.75
2023-02-15T18:44:59.202Z,100474.47
2023-02-15T18:47:28.432Z,100474.47
2023-02-15T18:49:57.176Z,100474.47
2023-02-15T18:52:31.357Z,100480.38
2023-02-15T18:55:08.681Z,100476.22
2023-02-15T18:57:38.863Z,100485.50
2023-02-15T19:00:17.330Z,100482.09
2023-02-15T19:02:46.397Z,100480.41
2023-02-15T19:05:16.165Z,100483.00
2023-02-15T19:07:48.460Z,100480.47
2023-02-15T19:10:20.984Z,100486.38
2023-02-15T19:12:52.491Z,100483.06
2023-02-15T19:15:23.548Z,100483.00
2023-02-15T19:17:53.089Z,100477.13
2023-02-15T19:20:24.964Z,100476.25
2023-02-15T19:22:55.125Z,100466.97
2023-02-15T19:25:26.312Z,100465.34
2023-02-15T19:27:57.725Z,100467.91
2023-02-15T19:30:31.027Z,100458.72
2023-02-15T19:33:02.165Z,100457.09
2023-02-15T19:35:34.671Z,100451.16
2023-02-15T19:38:06.531Z,100455.47
2023-02-15T19:40:37.301Z,100456.38
2023-02-15T19:43:17.515Z,100455.56
2023-02-15T19:45:47.155Z,100454.75
2023-02-15T19:48:15.890Z,100458.13
2023-02-15T19:50:46.900Z,100453.09
2023-02-15T19:53:24.576Z,100456.53
2023-02-15T19:55:54.075Z,100460.81
2023-02-15T19:58:24.395Z,100470.97
2023-02-15T20:00:53.454Z,100471.78
2023-02-15T20:03:22.227Z,100471.78
2023-02-15T20:05:51.087Z,100466.75
2023-02-15T20:08:23.414Z,100478.63
2023-02-15T20:10:52.436Z,100478.63
2023-02-15T20:13:23.648Z,100481.22
2023-02-15T20:15:53.386Z,100479.53
2023-02-15T20:18:22.875Z,100482.13
2023-02-15T20:20:53.566Z,100477.88
2023-02-15T20:23:26.973Z,100481.28
2023-02-15T20:26:00.365Z,100470.38
2023-02-15T20:28:33.019Z,100474.63
2023-02-15T20:31:02.583Z,100474.69
2023-02-15T20:33:32.074Z,100478.97
2023-02-15T20:36:01.471Z,100474.78
2023-02-15T20:38:32.761Z,100480.72
2023-02-15T20:41:18.786Z,100475.75
2023-02-15T20:43:48.826Z,100464.81
2023-02-15T20:46:17.446Z,100466.50
2023-02-15T20:48:46.240Z,100463.97
2023-02-15T20:51:18.624Z,100468.22
2023-02-15T20:53:47.911Z,100473.34
2023-02-15T20:56:21.178Z,100475.91
2023-02-15T20:58:54.365Z,100485.28
2023-02-15T21:01:23.211Z,100479.47
2023-02-15T21:03:51.837Z,100477.84
2023-02-15T21:06:20.486Z,100488.88
2023-02-15T21:08:49.096Z,100488.91
2023-02-15T21:11:23.814Z,100485.63
2023-02-15T21:13:53.905Z,100490.75
2023-02-15T21:16:22.518Z,100497.56
2023-02-15T21:18:51.285Z,100492.47
2023-02-15T21:21:24.105Z,100500.13
2023-02-15T21:23:54.409Z,100501.81
2023-02-15T21:26:24.325Z,100505.22
2023-02-15T21:28:55.187Z,100508.56
2023-02-15T21:31:26.477Z,100505.22
2023-02-15T21:33:55.176Z,100505.22
2023-02-15T21:36:26.857Z,100506.06
2023-02-15T21:38:56.159Z,100513.69
2023-02-15T21:41:44.759Z,100500.19
2023-02-15T21:44:38.621Z,100512.06
2023-02-15T21:47:25.486Z,100499.38
2023-02-15T21:49:54.895Z,100498.56
2023-02-15T21:52:24.048Z,100498.56
2023-02-15T21:54:52.731Z,100497.75
2023-02-15T21:57:22.450Z,100498.56
2023-02-15T21:59:52.655Z,100499.44
2023-02-15T22:02:30.031Z,100501.97
2023-02-15T22:05:00.344Z,100490.16
2023-02-15T22:07:28.949Z,100491.88
2023-02-15T22:09:57.631Z,100489.31
2023-02-15T22:12:26.252Z,100491.81
2023-02-15T22:14:56.519Z,100487.66
2023-02-15T22:17:29.095Z,100491.03
2023-02-15T22:19:58.865Z,100491.91
2023-02-15T22:22:30.133Z,100485.97
2023-02-15T22:24:58.818Z,100478.38
2023-02-15T22:27:31.563Z,100484.31
2023-02-15T22:30:02.437Z,100480.97
2023-02-15T22:32:31.174Z,100478.44
2023-02-15T22:34:59.798Z,100471.72
2023-02-15T22:37:28.519Z,100470.06
2023-02-15T22:39:57.183Z,100473.44
2023-02-15T22:42:28.889Z,100469.25
2023-02-15T22:44:59.235Z,100467.63
2023-02-15T22:47:32.233Z,100472.69
2023-02-15T22:50:01.053Z,100465.13
2023-02-15T22:52:29.800Z,100481.19
2023-02-15T22:54:58.377Z,100472.75
2023-02-15T22:57:33.435Z,100472.72
2023-02-15T23:00:02.591Z,100471.81
2023-02-15T23:02:32.604Z,100472.63
2023-02-15T23:05:01.301Z,100470.91
2023-02-15T23:07:30.017Z,100470.09
2023-02-15T23:09:58.590Z,100466.72
2023-02-15T23:12:50.117Z,100459.97
2023-02-15T23:15:18.975Z,100466.75
2023-02-15T23:17:49.008Z,100462.53
2023-02-15T23:20:17.893Z,100452.44
2023-02-15T23:22:46.504Z,100456.66
2023-02-15T23:25:15.222Z,100455.84
2023-02-15T23:27:58.958Z,100449.06
2023-02-15T23:30:28.170Z,100450.72
2023-02-15T23:32:59.408Z,100454.94
2023-02-15T23:35:28.357Z,100457.47
2023-02-15T23:37:56.969Z,100451.56
2023-02-15T23:40:43.389Z,100455.75
2023-02-15T23:43:20.817Z,100459.16
2023-02-15T23:45:49.851Z,100451.59
2023-02-15T23:48:31.995Z,100444.84
2023-02-15T23:51:01.417Z,100455.91
2023-02-15T23:53:30.268Z,100450.03
2023-02-15T23:55:59.538Z,100450.06
2023-02-15T23:58:36.770Z,100447.59
